Aeroporto :
LOGIN :

Iscrizione | Disclaimer

   EN    FR    IT 

 










Sommario :    VFR   VFR Marginale   IFR   IFR Intensivo   IFR Molto Intensivo
Visibilità : 
Base nubi : 
>= 8 km
>= 3000ft
5 / 8 km
1000 / 3000 ft
1500m / 5 km
500 / 1000 ft
800 / 1500m
200 / 500 ft
< 800m
< 200 ft
Simboli :   Temporali  Nebbia  Neve Forte  Precipitazioni Forti  Vento > 20 kt
SIGMETs :   Varie  Temporali  Ghiacco  Turbolenza  Onda orograficha  Ceneri Vulcaniche






- Altitudine del aeroporto : 218 ft
- Codice IATA : LBG


LFPB - Paris / Le Bourget

ULTIMO METAR :
  • 110230Z AUTO 18009KT 9999 OVC013 07/06 Q1013 TEMPO 3500 RA BKN008

METARs OBSOLETI :
  • 110200Z AUTO 17009KT 9999 OVC015 07/05 Q1013 TEMPO 3500 RA BKN008
  • 110130Z AUTO 17010KT 9999 BKN018 OVC024 07/05 Q1013 TEMPO 3500 RA BKN008
  • 110100Z AUTO 18012KT 9999 FEW019 OVC027 07/05 Q1013 BECMG BKN014
  • 110030Z AUTO 18013KT 9999 FEW016 BKN029 BKN034 07/05 Q1014 BECMG BKN012
  • 110000Z AUTO 18012KT 9999 BKN017 BKN036 BKN042 07/04 Q1014 TEMPO 19015G25KT BECMG BKN014

TAF AMD TAF LFPB
Valido dal 11 a 00 ore il 12 a 00 ore UTC


110023Z 1100/1124 19015G25KT 9999 BKN030
BECMG 1101/1103 21010KT BKN014
TEMPO 1103/1110 3500 RA BKN008
BECMG 1112/1114 CAVOK
TEMPO 1118/1122 3000 -SHRA BKN020 SCT025TCU
ATIS : +33 1 48 62 43 92



MetMap, La meteo Aeronautica in un colpo d'occhio ! - Copyright ORBIFLY Dicembre 2007 - Disclaimer

ORBIFLY MET'MAP TEAM :

Programmazione e sviluppo : Alexandra Zaïnal
Concezione : Baudouin d'Aumeries
Aiuto per la programmazione : Marc-Olivier Méhu
Supporto tecnico e logistico : Manuel Goepfert
Aiuto per la traduzione : Arnaldo La Scala

Contatto : metmap@orbifly.com




FONTI E CREDITI :

   NOAA